Time;durP1;ratioP1;P1;durP2;ratioP2;P2;SDS_P1;SDS_P2;PMS_P1;PMS_P2;Temp;Humidity;BMP_temperature;BMP_pressure;BME280_temperature;BME280_humidity;BME280_pressure;Samples;Min_cycle;Max_cycle;Signal;HPM_P1;HPM_P2
2021/05/06 00:04:41;;;;;;;2.70;2.33;;;;;;;6.24;79.66;95799.94;6277492;22;20445;-88
2021/05/06 00:35:08;;;;;;;4.37;1.60;;;;;;;6.50;82.09;95774.22;6283215;22;20419;-89
2021/05/06 00:37:43;;;;;;;1.73;1.63;;;;;;;6.46;82.33;95785.97;6282208;22;20431;-88
2021/05/06 00:40:12;;;;;;;3.00;2.10;;;;;;;6.43;81.89;95773.63;6281684;22;20407;-88
2021/05/06 00:42:57;;;;;;;4.50;1.60;;;;;;;6.42;82.53;95766.13;6281461;22;20404;-88
2021/05/06 00:56:33;;;;;;;2.80;1.70;;;;;;;6.40;83.27;95757.88;6280715;22;20780;-89
2021/05/06 01:04:49;;;;;;;7.23;1.97;;;;;;;6.45;82.73;95747.03;6281020;22;20409;-89
2021/05/06 01:07:35;;;;;;;3.13;1.77;;;;;;;6.46;82.63;95745.78;6281478;22;20377;-89
2021/05/06 01:10:13;;;;;;;3.47;2.07;;;;;;;6.29;83.78;95748.19;6281102;22;20390;-89
2021/05/06 01:12:41;;;;;;;2.10;1.90;;;;;;;6.35;84.20;95743.41;6281260;22;20575;-88
2021/05/06 01:15:08;;;;;;;5.10;1.93;;;;;;;6.44;83.56;95744.88;6280878;22;20494;-88
2021/05/06 01:17:34;;;;;;;2.43;1.50;;;;;;;6.42;83.54;95750.06;6281370;22;20440;-90
2021/05/06 01:20:00;;;;;;;2.27;1.97;;;;;;;6.42;83.93;95752.75;6281020;22;20469;-89
2021/05/06 01:22:27;;;;;;;4.87;1.90;;;;;;;6.32;84.46;95747.13;6281118;22;20436;-88
2021/05/06 01:24:56;;;;;;;1.87;1.33;;;;;;;6.42;84.60;95756.13;6280326;22;20496;-89
2021/05/06 01:27:26;;;;;;;2.07;1.47;;;;;;;6.42;84.37;95747.38;6281377;22;20409;-89
2021/05/06 01:29:58;;;;;;;5.00;1.70;;;;;;;6.43;84.48;95746.84;6282949;22;20448;-90
2021/05/06 01:32:28;;;;;;;3.00;2.10;;;;;;;6.39;84.13;95745.75;6283749;22;20383;-90
2021/05/06 01:34:57;;;;;;;2.70;2.20;;;;;;;6.32;83.84;95754.47;6283031;22;20413;-90
2021/05/06 01:37:28;;;;;;;7.80;2.07;;;;;;;6.38;84.59;95749.66;6283902;22;20416;-89
2021/05/06 01:40:26;;;;;;;3.63;1.67;;;;;;;6.36;84.58;95757.50;6283070;22;20407;-90
2021/05/06 01:42:54;;;;;;;5.70;2.00;;;;;;;6.39;84.05;95745.75;6281963;22;20397;-89
2021/05/06 01:48:13;;;;;;;2.43;1.93;;;;;;;6.41;83.78;95753.97;6303997;22;20382;-88
2021/05/06 01:51:05;;;;;;;5.63;2.40;;;;;;;6.52;83.38;95750.28;6299544;22;20416;-88
2021/05/06 01:59:10;;;;;;;3.40;2.43;;;;;;;6.38;83.27;95747.72;6194416;22;20475;-88
2021/05/06 02:01:36;;;;;;;3.53;1.83;;;;;;;6.42;82.95;95750.06;6280472;22;20485;-88
2021/05/06 02:04:02;;;;;;;4.03;1.90;;;;;;;6.47;82.10;95747.22;6280625;22;20408;-90
2021/05/06 02:06:28;;;;;;;3.50;1.93;;;;;;;6.49;82.33;95741.31;6281228;22;20509;-90
2021/05/06 02:08:54;;;;;;;5.77;2.57;;;;;;;6.47;82.08;95741.16;6281078;22;20411;-90
2021/05/06 02:11:23;;;;;;;3.77;1.63;;;;;;;6.60;81.90;95738.38;6280088;22;20396;-90
2021/05/06 02:13:51;;;;;;;6.77;2.80;;;;;;;6.58;81.92;95737.47;6280136;22;20434;-90
2021/05/06 02:16:19;;;;;;;5.77;1.93;;;;;;;6.54;81.49;95734.41;6280490;22;20446;-89
2021/05/06 02:18:46;;;;;;;2.53;2.00;;;;;;;6.56;82.10;95732.63;6282590;22;20405;-89
2021/05/06 02:21:16;;;;;;;3.70;2.10;;;;;;;6.61;81.97;95739.78;6280938;22;20498;-89
2021/05/06 02:23:42;;;;;;;5.10;2.73;;;;;;;6.59;81.19;95720.84;6282019;22;20461;-89
2021/05/06 02:26:08;;;;;;;4.67;2.43;;;;;;;6.53;81.89;95711.50;6280770;22;20491;-89
2021/05/06 02:28:35;;;;;;;4.77;2.13;;;;;;;6.62;81.62;95721.75;6280470;22;20504;-89
2021/05/06 02:31:01;;;;;;;4.70;2.37;;;;;;;6.63;80.91;95709.78;6281228;22;20409;-90
2021/05/06 02:33:28;;;;;;;7.13;2.50;;;;;;;6.58;81.03;95705.31;6281059;22;20490;-89
2021/05/06 02:35:54;;;;;;;4.57;2.60;;;;;;;6.64;80.83;95705.88;6281887;22;20436;-88
2021/05/06 02:38:20;;;;;;;4.80;2.10;;;;;;;6.59;81.13;95712.06;6280943;22;20761;-89
2021/05/06 02:40:46;;;;;;;3.50;2.50;;;;;;;6.51;81.91;95704.03;6281004;22;20465;-89
2021/05/06 02:43:12;;;;;;;3.70;1.90;;;;;;;6.52;82.00;95696.69;6280521;22;20401;-89
2021/05/06 02:45:39;;;;;;;10.23;2.40;;;;;;;6.41;82.07;95705.75;6280849;22;20942;-89
2021/05/06 02:48:06;;;;;;;4.80;2.30;;;;;;;6.41;82.25;95706.47;6281392;22;20512;-88
2021/05/06 02:50:32;;;;;;;5.97;2.30;;;;;;;6.33;82.91;95705.69;6281427;22;20400;-89
2021/05/06 02:53:01;;;;;;;4.40;2.13;;;;;;;6.37;83.37;95697.31;6280722;22;20429;-89
2021/05/06 02:55:37;;;;;;;10.37;2.37;;;;;;;6.42;82.97;95701.84;6280290;22;21001;-89
2021/05/06 02:58:06;;;;;;;7.43;2.77;;;;;;;6.43;82.60;95701.28;6281279;22;20371;-89
2021/05/06 03:03:17;;;;;;;3.90;2.23;;;;;;;6.54;82.48;95700.28;6280863;22;20384;-90
2021/05/06 03:05:47;;;;;;;2.47;2.10;;;;;;;6.51;83.21;95700.63;6280489;22;20902;-88
2021/05/06 03:08:16;;;;;;;8.63;2.70;;;;;;;6.54;82.65;95700.28;6280692;22;20687;-89
2021/05/06 03:11:12;;;;;;;5.10;2.60;;;;;;;6.58;83.19;95697.25;6282653;22;20394;-88
2021/05/06 03:14:13;;;;;;;3.27;2.00;;;;;;;6.51;82.86;95708.66;6280469;22;20744;-89
2021/05/06 03:24:55;;;;;;;3.20;1.87;;;;;;;6.48;84.10;95716.50;6282846;22;20763;-90
2021/05/06 03:27:26;;;;;;;10.37;3.03;;;;;;;6.38;84.47;95718.25;6283193;22;20792;-89
2021/05/06 03:30:00;;;;;;;6.53;3.13;;;;;;;6.29;85.61;95708.00;6290204;22;20424;-89
2021/05/06 03:32:31;;;;;;;5.80;2.50;;;;;;;6.23;85.98;95712.06;6284233;22;20368;-90
2021/05/06 03:35:26;;;;;;;6.30;3.10;;;;;;;6.16;86.96;95702.75;6281570;22;20421;-89
2021/05/06 03:43:34;;;;;;;4.83;2.43;;;;;;;6.11;89.76;95663.41;6280482;22;20370;-89
2021/05/06 04:16:31;;;;;;;4.50;1.90;;;;;;;5.86;94.41;95635.59;6302144;22;20428;-88
2021/05/06 04:19:03;;;;;;;3.97;2.47;;;;;;;5.79;93.72;95633.56;6305335;22;20364;-89
2021/05/06 04:21:39;;;;;;;5.90;2.83;;;;;;;5.69;94.42;95624.59;6303905;22;20436;-90
2021/05/06 04:26:58;;;;;;;4.87;2.57;;;;;;;5.74;94.81;95624.44;6299537;22;20367;-89
2021/05/06 04:37:26;;;;;;;7.23;3.47;;;;;;;6.00;93.68;95607.50;6284094;22;20405;-89
2021/05/06 04:39:55;;;;;;;5.33;3.13;;;;;;;6.12;94.04;95613.25;6283668;22;20766;-89
2021/05/06 04:45:28;;;;;;;5.50;2.83;;;;;;;6.52;92.95;95605.56;6299096;22;20733;-89
2021/05/06 04:53:57;;;;;;;2.83;2.40;;;;;;;6.92;90.52;95604.59;6285014;22;20382;-90
2021/05/06 04:56:46;;;;;;;8.60;3.80;;;;;;;7.01;90.43;95603.38;6283907;22;20384;-89
2021/05/06 05:04:38;;;;;;;10.27;2.70;;;;;;;8.10;86.35;95618.34;6283490;22;20352;-89
2021/05/06 05:07:10;;;;;;;5.40;2.63;;;;;;;8.24;84.04;95622.25;6283742;22;20394;-89
2021/05/06 05:12:51;;;;;;;4.13;2.30;;;;;;;8.37;83.31;95615.97;5157490;27;20510;-90
2021/05/06 05:18:24;;;;;;;7.43;2.97;;;;;;;8.21;83.48;95612.59;5120553;27;20397;-90
2021/05/06 05:21:15;;;;;;;5.67;2.83;;;;;;;8.23;83.21;95612.06;5159013;27;20445;-91
2021/05/06 05:23:43;;;;;;;5.70;2.80;;;;;;;8.14;83.39;95607.25;5157629;27;20425;-90
2021/05/06 05:26:11;;;;;;;5.33;3.80;;;;;;;8.01;83.98;95598.16;5158884;27;20462;-90
2021/05/06 05:28:39;;;;;;;5.73;2.67;;;;;;;8.07;83.39;95603.31;5158123;27;20425;-90
2021/05/06 05:31:05;;;;;;;4.97;2.93;;;;;;;7.96;84.08;95601.00;5158050;27;20576;-89
2021/05/06 05:33:35;;;;;;;6.90;2.77;;;;;;;7.96;85.01;95601.00;5158478;27;20514;-90
2021/05/06 05:36:10;;;;;;;7.00;2.90;;;;;;;8.00;84.45;95601.34;5158076;27;20483;-89
2021/05/06 05:38:44;;;;;;;3.60;2.40;;;;;;;7.82;85.09;95595.13;5159364;27;20425;-90
2021/05/06 05:41:33;;;;;;;3.80;2.97;;;;;;;7.74;85.82;95581.00;5158861;27;20440;-90
2021/05/06 05:44:33;;;;;;;6.57;3.17;;;;;;;7.81;86.20;95588.31;5158683;27;20438;-90
2021/05/06 05:55:11;;;;;;;6.10;3.43;;;;;;;7.69;87.74;95583.88;5160473;27;20430;-89
2021/05/06 05:57:37;;;;;;;6.80;3.00;;;;;;;7.57;87.96;95586.22;5167246;27;20418;-90
2021/05/06 06:00:05;;;;;;;6.87;3.90;;;;;;;7.61;88.12;95593.91;5177582;27;20456;-90
2021/05/06 06:02:34;;;;;;;4.27;3.50;;;;;;;7.54;88.51;95596.06;5177406;27;20512;-89
2021/05/06 06:05:00;;;;;;;13.93;3.60;;;;;;;7.49;88.52;95585.50;5178583;27;20428;-90
2021/05/06 06:07:26;;;;;;;5.23;4.43;;;;;;;7.38;89.13;95591.97;5179599;27;20433;-90
2021/05/06 06:09:52;;;;;;;7.43;3.50;;;;;;;7.47;88.19;95594.09;5159366;27;20438;-88
2021/05/06 06:12:18;;;;;;;6.60;3.17;;;;;;;7.44;87.83;95594.47;5148091;27;20508;-87
2021/05/06 06:14:50;;;;;;;4.90;2.80;;;;;;;7.48;88.14;95597.50;5154763;27;20470;-86
2021/05/06 06:17:20;;;;;;;9.40;3.73;;;;;;;7.53;87.34;95602.69;5155681;27;21079;-86
2021/05/06 06:19:49;;;;;;;6.30;2.67;;;;;;;7.48;87.30;95602.88;5148458;27;20415;-86
2021/05/06 06:22:17;;;;;;;6.63;3.00;;;;;;;7.48;87.43;95603.59;5131902;27;20547;-86
2021/05/06 06:24:43;;;;;;;8.97;3.53;;;;;;;7.55;87.57;95597.47;5137370;28;20442;-87
2021/05/06 06:27:11;;;;;;;7.00;3.47;;;;;;;7.48;87.36;95600.19;5137158;28;20450;-88
2021/05/06 06:29:40;;;;;;;8.40;2.97;;;;;;;7.47;87.19;95594.09;5127784;27;20425;-88
2021/05/06 06:32:11;;;;;;;6.10;3.30;;;;;;;7.49;86.76;95588.91;5128800;27;20475;-88
2021/05/06 06:34:38;;;;;;;7.20;2.70;;;;;;;7.54;86.42;95588.03;5129162;28;20406;-89
2021/05/06 06:37:05;;;;;;;5.07;3.57;;;;;;;7.70;85.42;95583.34;5129979;27;20415;-88
2021/05/06 06:39:31;;;;;;;7.23;2.83;;;;;;;7.65;85.70;95583.50;5122635;28;20482;-86
2021/05/06 06:41:58;;;;;;;8.07;3.40;;;;;;;7.73;85.42;95576.19;5120795;28;20843;-88
2021/05/06 06:44:33;;;;;;;7.30;3.27;;;;;;;7.79;85.52;95568.66;5124068;28;20982;-88
2021/05/06 06:47:06;;;;;;;5.07;2.30;;;;;;;7.69;85.44;95565.78;5129277;27;20542;-90
2021/05/06 06:49:47;;;;;;;;;;;;;;;;;;;;;
2021/05/06 06:52:14;;;;;;;6.10;2.67;;;;;;;7.81;84.99;95564.16;5125293;28;20555;-89
2021/05/06 06:54:41;;;;;;;10.83;3.93;;;;;;;7.84;84.90;95562.34;5139899;28;20458;-90
2021/05/06 06:57:08;;;;;;;5.90;2.47;;;;;;;7.92;84.66;95563.06;5139192;28;20411;-90
2021/05/06 06:59:37;;;;;;;7.77;2.93;;;;;;;7.97;84.96;95567.53;5136992;28;20451;-88
2021/05/06 07:02:04;;;;;;;8.10;2.87;;;;;;;8.02;84.76;95575.38;5125270;28;20407;-86
2021/05/06 07:04:32;;;;;;;5.10;2.13;;;;;;;8.08;84.44;95577.91;5121372;28;20462;-88
2021/05/06 07:06:58;;;;;;;5.03;2.27;;;;;;;8.12;83.72;95575.53;5128616;27;20451;-90
2021/05/06 07:09:25;;;;;;;5.60;2.60;;;;;;;8.12;84.24;95559.41;5143268;27;20509;-89
2021/05/06 07:11:55;;;;;;;9.33;3.40;;;;;;;8.15;83.48;95566.38;5141874;27;21005;-88
2021/05/06 07:14:23;;;;;;;6.10;2.40;;;;;;;8.14;83.29;95562.28;5141548;27;20468;-89
2021/05/06 07:16:50;;;;;;;5.70;2.63;;;;;;;8.17;83.05;95561.19;5137074;27;20526;-87
2021/05/06 07:19:18;;;;;;;8.60;3.10;;;;;;;8.28;81.75;95555.44;5120383;27;20827;-86
2021/05/06 07:21:46;;;;;;;8.70;3.03;;;;;;;8.25;81.91;95561.88;5136304;27;20512;-88
2021/05/06 07:24:13;;;;;;;4.53;2.77;;;;;;;8.27;81.96;95562.03;5121138;28;20935;-87
2021/05/06 07:26:42;;;;;;;5.60;2.70;;;;;;;8.35;81.63;95560.06;5138352;27;20553;-85
2021/05/06 07:29:09;;;;;;;6.50;3.00;;;;;;;8.43;81.85;95558.06;5139723;27;20450;-85
2021/05/06 07:31:39;;;;;;;5.40;2.73;;;;;;;8.49;81.37;95555.88;5140760;27;20434;-88
2021/05/06 07:34:06;;;;;;;11.47;3.40;;;;;;;8.56;81.07;95565.88;5142628;27;20405;-90
2021/05/06 07:36:36;;;;;;;4.63;2.30;;;;;;;8.65;79.29;95569.94;5152257;27;20438;-89
2021/05/06 07:39:02;;;;;;;7.70;3.23;;;;;;;8.69;79.08;95569.56;5159031;27;20439;-89
2021/05/06 07:41:28;;;;;;;5.27;3.03;;;;;;;8.72;79.86;95574.59;5158922;27;20494;-87
2021/05/06 07:43:55;;;;;;;7.90;2.67;;;;;;;8.72;79.86;95574.59;5159643;27;20397;-93
2021/05/06 07:46:21;;;;;;;5.30;2.67;;;;;;;8.85;79.69;95573.63;5147248;27;20472;-93
2021/05/06 07:48:48;;;;;;;5.90;2.17;;;;;;;8.91;78.13;95555.28;5145604;27;20523;-92
2021/05/06 07:51:14;;;;;;;6.33;2.47;;;;;;;9.08;76.81;95553.34;5154800;27;20492;-92
2021/05/06 07:53:47;;;;;;;7.50;2.50;;;;;;;9.15;75.83;95547.22;5149612;27;20889;-93
2021/05/06 07:56:13;;;;;;;3.73;2.27;;;;;;;9.32;76.18;95554.63;5150368;27;20425;-95
2021/05/06 07:58:39;;;;;;;4.73;2.00;;;;;;;9.48;74.71;95555.94;5164989;27;20465;-91
2021/05/06 08:01:09;;;;;;;6.80;3.13;;;;;;;9.64;74.51;95556.50;5166137;27;20397;-91
2021/05/06 08:03:36;;;;;;;4.97;2.40;;;;;;;9.59;73.56;95552.75;5167073;27;20424;-91
2021/05/06 08:06:07;;;;;;;5.83;2.63;;;;;;;9.72;73.82;95556.41;5163851;27;20454;-90
2021/05/06 08:08:33;;;;;;;4.73;2.23;;;;;;;9.80;73.94;95557.06;5146063;27;20426;-92
2021/05/06 08:11:00;;;;;;;7.77;2.60;;;;;;;9.84;73.50;95568.16;5147698;27;20445;-90
2021/05/06 08:13:28;;;;;;;6.33;2.30;;;;;;;9.80;73.91;95560.47;5141920;27;20414;-86
2021/05/06 08:15:59;;;;;;;6.23;2.37;;;;;;;9.82;74.15;95566.03;5100836;22;21052;-91
2021/05/06 08:18:26;;;;;;;6.60;2.70;;;;;;;9.95;72.92;95560.31;5069029;28;20434;-92
2021/05/06 08:20:52;;;;;;;9.97;2.93;;;;;;;9.95;72.59;95559.59;5071019;28;20435;-91
2021/05/06 08:23:18;;;;;;;6.70;2.23;;;;;;;9.75;73.13;95549.91;5072215;28;20505;-90
2021/05/06 08:25:45;;;;;;;4.67;2.63;;;;;;;9.82;73.24;95557.94;5069653;28;20454;-90
2021/05/06 08:28:12;;;;;;;9.03;2.23;;;;;;;9.86;73.56;95552.16;5070530;28;20415;-91
2021/05/06 08:30:39;;;;;;;6.57;2.50;;;;;;;9.92;72.61;95550.66;5063905;28;20914;-91
2021/05/06 08:33:05;;;;;;;8.47;2.23;;;;;;;10.05;72.44;95547.66;5064181;28;20759;-92
2021/05/06 08:35:33;;;;;;;11.90;3.17;;;;;;;10.00;72.73;95545.88;5066097;28;20454;-91
2021/05/06 08:38:01;;;;;;;12.00;3.87;;;;;;;9.95;73.02;95540.75;5069420;28;20447;-91
2021/05/06 08:40:29;;;;;;;3.40;2.30;;;;;;;9.89;73.05;95537.56;5067419;28;20454;-92
2021/05/06 08:42:56;;;;;;;8.00;2.73;;;;;;;9.98;72.20;95543.03;5066422;28;20450;-91
2021/05/06 08:45:31;;;;;;;7.97;2.97;;;;;;;10.04;72.66;95542.78;5065899;28;20479;-91
2021/05/06 08:47:58;;;;;;;7.90;3.03;;;;;;;10.14;72.42;95536.25;5064573;28;20453;-92
2021/05/06 08:50:27;;;;;;;4.47;2.17;;;;;;;10.19;72.10;95543.38;5069509;28;20442;-94
2021/05/06 09:06:15;;;;;;;9.20;2.80;;;;;;;10.19;70.67;95546.06;5061622;28;20479;-91
2021/05/06 09:08:44;;;;;;;10.13;3.10;;;;;;;10.12;70.90;95551.50;5066490;28;20417;-92
2021/05/06 09:11:10;;;;;;;5.10;2.43;;;;;;;10.08;71.01;95540.41;5062111;28;20515;-91
2021/05/06 09:13:37;;;;;;;5.43;2.20;;;;;;;10.09;69.92;95539.13;5061786;28;20454;-92
2021/05/06 09:16:04;;;;;;;8.80;2.40;;;;;;;10.09;70.94;95541.81;5069064;28;20436;-95
2021/05/06 09:18:36;;;;;;;7.80;2.40;;;;;;;9.98;70.97;95540.34;5076815;28;20464;-91
2021/05/06 09:21:06;;;;;;;12.30;2.63;;;;;;;9.99;71.20;95546.47;5065791;28;20450;-93
2021/05/06 09:23:34;;;;;;;7.83;2.67;;;;;;;9.82;72.01;95541.06;5061028;28;20458;-91
2021/05/06 09:26:06;;;;;;;8.23;2.57;;;;;;;9.78;72.75;95535.34;5067569;28;20459;-90
2021/05/06 09:28:34;;;;;;;9.83;2.70;;;;;;;9.76;73.74;95537.88;5072373;28;20430;-93
2021/05/06 09:31:05;;;;;;;10.33;3.20;;;;;;;9.77;74.62;95540.03;5068240;28;20594;-94
2021/05/06 09:33:34;;;;;;;6.60;2.10;;;;;;;9.78;74.30;95538.75;5062156;28;20394;-91
2021/05/06 09:36:09;;;;;;;11.53;3.97;;;;;;;9.92;75.41;95542.56;5064855;28;20454;-91
2021/05/06 09:38:38;;;;;;;7.13;2.43;;;;;;;9.91;76.25;95543.84;5065656;28;20483;-91
2021/05/06 09:41:06;;;;;;;5.93;2.70;;;;;;;9.73;77.57;95539.00;5063534;28;20430;-88
2021/05/06 09:43:38;;;;;;;8.13;3.40;;;;;;;9.78;77.69;95543.41;5063568;28;20492;-91
2021/05/06 09:46:04;;;;;;;8.67;3.07;;;;;;;9.72;78.44;95542.94;5057576;28;20480;-90
2021/05/06 09:48:30;;;;;;;8.20;3.53;;;;;;;9.61;78.99;95546.84;5045471;28;20420;-92
2021/05/06 09:51:01;;;;;;;9.23;2.60;;;;;;;9.66;78.77;95535.09;5041780;28;20573;-91
2021/05/06 09:53:34;;;;;;;10.63;3.67;;;;;;;9.58;78.93;95542.56;5045935;28;20542;-91
2021/05/06 09:56:05;;;;;;;9.60;3.00;;;;;;;9.55;79.41;95549.75;5045052;28;20456;-92
2021/05/06 09:58:33;;;;;;;10.43;2.80;;;;;;;9.54;79.34;95534.16;5048615;28;20882;-87
2021/05/06 10:01:11;;;;;;;7.00;3.30;;;;;;;9.62;79.97;95526.69;5043607;28;20462;-88
2021/05/06 10:03:45;;;;;;;11.13;3.30;;;;;;;9.57;79.87;95533.75;5060460;28;20441;-94
2021/05/06 10:06:17;;;;;;;16.37;3.30;;;;;;;9.52;80.97;95537.38;5051312;28;20450;-91
2021/05/06 10:08:43;;;;;;;6.83;3.40;;;;;;;9.74;80.87;95532.34;5055305;28;20447;-91
2021/05/06 10:11:12;;;;;;;9.87;3.53;;;;;;;9.81;80.07;95534.22;5053611;28;20495;-90
2021/05/06 10:13:43;;;;;;;9.20;4.30;;;;;;;9.80;81.06;95536.25;5047239;28;20465;-92
2021/05/06 10:16:10;;;;;;;8.50;3.70;;;;;;;9.82;80.58;95539.06;5047223;28;20834;-91
2021/05/06 10:18:39;;;;;;;8.40;3.80;;;;;;;9.83;80.17;95529.03;5048436;28;20862;-91
2021/05/06 10:21:06;;;;;;;4.40;2.80;;;;;;;9.92;80.34;95531.78;5043172;28;20447;-89
2021/05/06 10:23:32;;;;;;;10.30;3.53;;;;;;;10.00;81.06;95527.03;5042452;28;20446;-90
2021/05/06 10:26:00;;;;;;;7.30;3.40;;;;;;;9.94;80.74;95521.16;5044690;28;20473;-89
2021/05/06 10:28:28;;;;;;;7.07;2.97;;;;;;;9.95;80.73;95519.19;5046110;28;20463;-88
2021/05/06 10:30:55;;;;;;;5.20;2.70;;;;;;;9.86;80.36;95517.13;5047327;28;20486;-89
2021/05/06 10:33:23;;;;;;;5.53;2.63;;;;;;;9.75;80.63;95514.91;5047056;28;20501;-88
2021/05/06 10:35:50;;;;;;;6.90;2.40;;;;;;;9.59;81.27;95517.75;5046712;28;20451;-89
2021/05/06 10:38:18;;;;;;;9.53;2.53;;;;;;;9.62;81.15;95508.56;5046558;28;20442;-89
2021/05/06 10:40:44;;;;;;;4.70;2.57;;;;;;;9.71;81.34;95514.59;5041680;28;20470;-88
2021/05/06 10:43:26;;;;;;;4.00;1.93;;;;;;;9.59;80.53;95509.66;5044226;28;20414;-91
2021/05/06 10:46:01;;;;;;;9.90;2.33;;;;;;;9.51;81.53;95509.03;5045034;28;20438;-86
2021/05/06 10:48:55;;;;;;;7.30;2.60;;;;;;;9.63;80.65;95503.91;5045098;28;20470;-88
2021/05/06 10:51:27;;;;;;;4.03;2.00;;;;;;;9.62;80.39;95494.38;5042115;28;20506;-86
2021/05/06 10:53:54;;;;;;;7.53;2.10;;;;;;;9.53;79.72;95487.66;5044382;28;20391;-86
2021/05/06 10:56:20;;;;;;;2.40;1.73;;;;;;;9.54;79.69;95486.41;5047553;28;20546;-88
2021/05/06 10:58:46;;;;;;;12.63;2.73;;;;;;;9.51;79.72;95484.81;5048172;28;20410;-89
2021/05/06 11:01:24;;;;;;;6.33;2.13;;;;;;;9.54;79.84;95474.91;5045157;28;20439;-88
2021/05/06 11:04:31;;;;;;;4.50;1.70;;;;;;;9.68;78.90;95473.31;5047105;28;20454;-88
2021/05/06 11:07:15;;;;;;;4.33;1.87;;;;;;;9.78;79.24;95470.69;5058873;28;20426;-90
2021/05/06 11:10:01;;;;;;;2.80;1.80;;;;;;;9.85;78.45;95472.59;5064022;28;20421;-89
2021/05/06 11:12:29;;;;;;;5.67;2.40;;;;;;;9.85;78.84;95473.31;5063647;28;20909;-88
2021/05/06 11:15:30;;;;;;;6.47;2.07;;;;;;;9.97;78.99;95460.75;5062561;28;20467;-87
2021/05/06 11:17:59;;;;;;;1.93;1.57;;;;;;;10.03;78.57;95463.91;5061904;28;20483;-89
2021/05/06 11:20:56;;;;;;;3.23;1.47;;;;;;;10.16;77.68;95457.50;5063209;28;20461;-90
2021/05/06 11:23:31;;;;;;;6.00;1.80;;;;;;;10.26;76.85;95460.25;5068101;28;20498;-92
2021/05/06 11:26:14;;;;;;;3.60;1.83;;;;;;;10.09;76.67;95450.91;5068952;28;20924;-92
2021/05/06 11:28:58;;;;;;;2.97;1.80;;;;;;;9.97;77.14;95447.28;5065226;28;20486;-92
2021/05/06 11:31:48;;;;;;;4.40;2.07;;;;;;;10.10;78.09;95446.94;5065385;28;20482;-90
2021/05/06 11:34:38;;;;;;;3.63;1.80;;;;;;;10.16;76.39;95444.03;5068377;28;20977;-91
2021/05/06 11:37:16;;;;;;;4.87;1.50;;;;;;;10.23;75.63;95440.53;5064296;28;20426;-89
2021/05/06 11:40:11;;;;;;;3.53;1.37;;;;;;;10.30;75.48;95428.22;5063789;28;20419;-90
2021/05/06 11:42:45;;;;;;;5.37;1.40;;;;;;;10.35;75.79;95429.94;5066727;28;20472;-94
2021/05/06 11:45:20;;;;;;;3.13;1.30;;;;;;;10.35;74.88;95417.16;5074727;28;20532;-94
2021/05/06 11:47:47;;;;;;;11.37;1.57;;;;;;;10.32;74.82;95407.50;5071765;28;20503;-93
2021/05/06 11:50:36;;;;;;;3.17;1.30;;;;;;;10.36;74.28;95409.78;5068117;28;20427;-90
2021/05/06 11:53:03;;;;;;;1.93;1.40;;;;;;;10.33;74.40;95413.59;5064887;28;20500;-90
2021/05/06 11:55:41;;;;;;;4.43;1.70;;;;;;;10.41;73.21;95412.22;5067054;28;20464;-91
2021/05/06 11:58:09;;;;;;;5.03;1.70;;;;;;;10.41;73.48;95401.44;5066836;28;20572;-89
2021/05/06 12:00:37;;;;;;;2.23;1.10;;;;;;;10.35;72.49;95392.19;5064735;28;20504;-92
2021/05/06 12:03:38;;;;;;;2.83;1.37;;;;;;;10.34;73.08;95401.56;5070314;28;20456;-93
2021/05/06 12:06:06;;;;;;;1.23;0.90;;;;;;;10.45;72.15;95390.22;5074106;28;20524;-92
2021/05/06 12:08:42;;;;;;;1.10;0.90;;;;;;;10.32;72.22;95385.22;5074654;28;20397;-91
2021/05/06 12:11:10;;;;;;;2.93;1.00;;;;;;;10.32;72.86;95371.72;5069047;28;20798;-92
2021/05/06 12:13:37;;;;;;;1.90;1.10;;;;;;;10.27;72.78;95373.44;5065893;28;20413;-91
2021/05/06 12:16:11;;;;;;;1.23;1.00;;;;;;;10.31;72.15;95365.63;5067687;28;20462;-90
2021/05/06 12:18:49;;;;;;;1.50;0.93;;;;;;;10.44;72.21;95372.63;5066519;28;20450;-91
2021/05/06 12:27:29;;;;;;;2.03;1.20;;;;;;;10.39;72.34;95346.66;5082916;28;20507;-90
2021/05/06 12:30:11;;;;;;;4.20;1.10;;;;;;;10.47;72.54;95339.13;5090938;28;20456;-91
2021/05/06 12:32:43;;;;;;;3.23;1.30;;;;;;;10.56;73.43;95335.75;5083319;28;20512;-90
2021/05/06 12:35:10;;;;;;;1.40;1.20;;;;;;;10.60;74.57;95331.38;5076254;28;20481;-88
2021/05/06 12:37:41;;;;;;;2.03;1.30;;;;;;;10.49;74.86;95326.53;5066655;28;20577;-92
2021/05/06 12:40:12;;;;;;;1.80;0.93;;;;;;;10.52;76.09;95313.91;5240225;22;20499;-90
2021/05/06 12:42:39;;;;;;;1.87;1.63;;;;;;;10.44;77.65;95316.69;5097851;28;20449;-88
2021/05/06 12:45:24;;;;;;;2.10;1.60;;;;;;;10.39;78.82;95323.09;5093810;28;20496;-89
2021/05/06 12:47:51;;;;;;;1.97;1.33;;;;;;;10.51;78.66;95318.56;5061978;28;20441;-90
2021/05/06 12:50:19;;;;;;;2.23;1.90;;;;;;;10.42;80.29;95305.78;5064057;28;20413;-91
2021/05/06 12:52:47;;;;;;;3.37;1.80;;;;;;;10.46;80.39;95306.06;5062748;28;20517;-90
2021/05/06 12:55:22;;;;;;;2.43;1.10;;;;;;;10.42;80.86;95300.38;5062230;28;20466;-89
2021/05/06 13:13:49;;;;;;;2.73;1.60;;;;;;;10.08;85.76;95295.88;5538669;23;15633097;-91
2021/05/06 13:16:17;;;;;;;4.40;2.00;;;;;;;10.12;85.78;95300.81;6211412;23;20294;-91
2021/05/06 13:18:58;;;;;;;3.40;2.43;;;;;;;9.97;86.59;95306.44;6213323;23;20443;-90
2021/05/06 13:21:25;;;;;;;2.53;1.87;;;;;;;10.03;86.38;95299.53;6212982;23;20844;-89
2021/05/06 13:23:53;;;;;;;3.40;1.77;;;;;;;10.04;86.15;95298.25;6215098;23;20378;-90
2021/05/06 13:26:30;;;;;;;3.30;2.13;;;;;;;9.88;88.71;95291.66;6216647;23;20414;-92
2021/05/06 13:29:00;;;;;;;2.70;2.00;;;;;;;9.85;88.94;95284.00;6217161;23;20395;-91
2021/05/06 13:31:32;;;;;;;3.13;1.90;;;;;;;9.85;89.06;95281.31;6213567;23;20423;-91
2021/05/06 13:34:15;;;;;;;2.03;1.43;;;;;;;9.73;89.63;95275.00;6209266;23;20383;-91
2021/05/06 13:36:46;;;;;;;1.93;1.70;;;;;;;9.78;90.40;95269.34;6209547;23;20427;-92
2021/05/06 13:39:14;;;;;;;3.23;2.13;;;;;;;9.84;90.15;95266.41;6210420;23;20413;-90
2021/05/06 13:41:44;;;;;;;4.37;2.10;;;;;;;9.83;90.59;95263.00;6212369;23;20369;-92
2021/05/06 13:44:14;;;;;;;3.30;2.17;;;;;;;9.75;91.76;95254.31;6219880;23;20414;-92
2021/05/06 13:46:46;;;;;;;2.73;2.33;;;;;;;9.64;92.59;95249.47;6204301;23;20427;-93
2021/05/06 13:49:13;;;;;;;5.87;3.53;;;;;;;9.55;92.92;95239.38;6202671;23;20406;-91
2021/05/06 13:51:39;;;;;;;5.97;3.63;;;;;;;9.47;94.11;95225.28;6204648;23;20391;-90
2021/05/06 13:54:07;;;;;;;4.90;3.33;;;;;;;9.40;95.32;95220.72;6207670;23;20422;-93
2021/05/06 13:56:33;;;;;;;6.83;4.03;;;;;;;9.51;95.64;95214.81;6211346;23;20431;-88
2021/05/06 13:58:59;;;;;;;4.40;3.80;;;;;;;9.55;94.85;95215.81;6205547;23;20458;-87
2021/05/06 14:01:27;;;;;;;9.50;4.27;;;;;;;9.74;94.59;95203.72;6205349;23;20386;-91
2021/05/06 14:03:53;;;;;;;4.00;3.10;;;;;;;9.58;92.84;95200.53;6212004;23;20438;-90
2021/05/06 14:06:20;;;;;;;7.23;3.90;;;;;;;9.50;93.93;95197.94;6209321;23;20462;-90
2021/05/06 14:08:50;;;;;;;3.90;2.50;;;;;;;9.55;93.03;95196.28;6209370;23;20375;-91
2021/05/06 14:11:19;;;;;;;5.57;2.77;;;;;;;9.60;93.59;95185.25;6203012;23;20386;-91
2021/05/06 14:13:46;;;;;;;5.20;2.60;;;;;;;9.63;93.40;95178.00;6203974;23;20371;-93
2021/05/06 14:16:12;;;;;;;2.97;2.00;;;;;;;9.54;92.59;95171.34;6202164;23;20439;-93
2021/05/06 14:18:39;;;;;;;4.03;2.40;;;;;;;9.59;92.88;95161.56;6204202;23;20436;-94
2021/05/06 14:21:08;;;;;;;2.90;1.87;;;;;;;9.54;93.20;95154.47;6200230;23;20384;-94
2021/05/06 14:23:39;;;;;;;5.30;2.40;;;;;;;9.55;93.38;95153.88;6206228;23;20405;-90
2021/05/06 14:26:07;;;;;;;2.07;1.40;;;;;;;9.54;91.48;95157.16;6210202;23;20382;-90
2021/05/06 14:28:38;;;;;;;1.47;1.20;;;;;;;9.51;91.59;95161.69;6234740;23;20438;-93
2021/05/06 14:31:05;;;;;;;4.83;1.33;;;;;;;9.46;92.03;95165.34;6201739;23;20415;-92
2021/05/06 14:33:34;;;;;;;2.20;1.27;;;;;;;9.51;91.81;95156.31;6199320;23;20382;-92
2021/05/06 14:36:18;;;;;;;1.60;1.50;;;;;;;9.47;91.68;95149.91;6200400;23;20428;-89
2021/05/06 14:38:44;;;;;;;3.83;1.57;;;;;;;9.47;92.48;95144.50;6197126;23;20417;-88
2021/05/06 14:41:11;;;;;;;5.33;1.20;;;;;;;9.46;92.92;95143.78;6198368;23;20409;-89
2021/05/06 14:43:38;;;;;;;1.60;1.10;;;;;;;9.49;93.06;95142.66;6197813;23;20378;-90
2021/05/06 14:46:05;;;;;;;2.70;1.10;;;;;;;9.47;93.19;95142.53;6195769;23;20554;-89
2021/05/06 14:48:31;;;;;;;4.07;1.23;;;;;;;9.33;92.88;95135.41;6198008;23;20400;-91
2021/05/06 14:51:04;;;;;;;2.23;0.90;;;;;;;9.37;92.95;95122.94;6199188;23;20400;-91
2021/05/06 14:53:30;;;;;;;2.30;0.83;;;;;;;9.41;93.28;95131.31;6198853;23;20874;-91
2021/05/06 14:55:56;;;;;;;3.63;1.10;;;;;;;9.51;93.88;95132.06;6197954;23;20394;-91
2021/05/06 14:58:23;;;;;;;4.47;1.40;;;;;;;9.44;94.53;95116.72;6195359;23;20421;-91